Startpagina
METAR-TAF:

METAR-TAF

Vliegvelden :

Hagåtña, Guam, Verenigde Staten

breedte: 13-29N, lengte: 144-48E, hoogte: 91 m

Actueel weer

Dit bericht is 1 uur en het 10 minuten geleden gemaakt, om 09:54 UTC
Wind 6 kt uit het oosten
Temperatuur 27°C
Vochtigheid 79%
Druk 1015 hPa
Zicht: 16.1 km
Weinig wolken op 2300 ft

METAR: PGUM 260954Z 08006KT 10SM FEW023 27/23 A2997 RMK AO2 SLP140 T02720233

Tijdstip: 21:04 (11:04 UTC)

Verwachting

Dit bericht is 5 uur en het 33 minuten geleden gemaakt, om 05:31 UTC
Verwachting geldig van 26 om 06 UTC tot 27 om 12 UTC
Wind 13 kt uit het oosten
Zicht: 10 km
Verspreide wolken op 2400 ft
Van 26 om 0900 UTC
Wind 7 kt uit het oostnoordoosten
Zicht: 10 km
Verspreide wolken op 2000 ft

TAF: PGUM 260531Z 2606/2712 08013KT P6SM SCT024 FM260900 07007KT P6SM SCT020

Waarnemingen en weersverwachtingen van meer dan 4000 vliegvelden (METAR en TAF).

De beschikbare stations zijn de gele en rode punten op de kaart.

Ga met uw muis naar het station om de naam te zien.

Klik dan om waarnemingen en weersverwachtingen te zien.

kaart wijzigen: klik op de groene knoppen met een zwart kruis om in te zoomen, op de groene knop met een streepje om uit te zoomen of op de groene pijlen voor aangrenzende kaarten.


METAR-TAF: